sensor_id;sensor_type;location;lat;lon;timestamp;temperature;humidity
12957;DHT22;6543;48.836;10.092;2023-02-28T00:01:09;-1.80;99.90
12957;DHT22;6543;48.836;10.092;2023-02-28T00:03:53;-1.80;99.90
12957;DHT22;6543;48.836;10.092;2023-02-28T00:06:39;-0.90;99.90
12957;DHT22;6543;48.836;10.092;2023-02-28T00:12:17;-3.10;99.90
12957;DHT22;6543;48.836;10.092;2023-02-28T00:15:00;-0.40;99.90
12957;DHT22;6543;48.836;10.092;2023-02-28T00:17:46;-1.90;99.90
12957;DHT22;6543;48.836;10.092;2023-02-28T00:23:13;-3.20;99.90
12957;DHT22;6543;48.836;10.092;2023-02-28T00:25:42;-1.90;99.90
12957;DHT22;6543;48.836;10.092;2023-02-28T00:28:09;0.20;99.90
12957;DHT22;6543;48.836;10.092;2023-02-28T00:30:36;-1.90;99.90
12957;DHT22;6543;48.836;10.092;2023-02-28T00:33:03;-1.90;99.90
12957;DHT22;6543;48.836;10.092;2023-02-28T00:35:30;-1.90;99.90
12957;DHT22;6543;48.836;10.092;2023-02-28T00:37:57;-0.60;99.90
12957;DHT22;6543;48.836;10.092;2023-02-28T00:40:24;-0.20;99.90
12957;DHT22;6543;48.836;10.092;2023-02-28T00:42:53;-1.90;99.90
12957;DHT22;6543;48.836;10.092;2023-02-28T00:45:25;0.00;99.90
12957;DHT22;6543;48.836;10.092;2023-02-28T00:48:01;-1.70;99.90
12957;DHT22;6543;48.836;10.092;2023-02-28T00:50:37;-0.60;99.90
12957;DHT22;6543;48.836;10.092;2023-02-28T00:53:35;-0.10;99.90
12957;DHT22;6543;48.836;10.092;2023-02-28T00:56:32;-1.50;99.90
12957;DHT22;6543;48.836;10.092;2023-02-28T00:59:09;-0.50;99.90
12957;DHT22;6543;48.836;10.092;2023-02-28T01:01:55;-0.30;99.90
12957;DHT22;6543;48.836;10.092;2023-02-28T01:04:36;-0.10;99.90
12957;DHT22;6543;48.836;10.092;2023-02-28T01:07:21;-0.70;99.90
12957;DHT22;6543;48.836;10.092;2023-02-28T01:12:53;-0.60;99.90
12957;DHT22;6543;48.836;10.092;2023-02-28T01:15:29;-1.90;99.90
12957;DHT22;6543;48.836;10.092;2023-02-28T01:18:10;-1.00;99.90
12957;DHT22;6543;48.836;10.092;2023-02-28T01:20:52;-1.80;99.90
12957;DHT22;6543;48.836;10.092;2023-02-28T01:23:38;-1.90;99.90
12957;DHT22;6543;48.836;10.092;2023-02-28T01:26:24;-1.10;99.90
12957;DHT22;6543;48.836;10.092;2023-02-28T01:28:55;-2.70;99.90
12957;DHT22;6543;48.836;10.092;2023-02-28T01:31:35;-0.10;99.90
12957;DHT22;6543;48.836;10.092;2023-02-28T01:34:25;-1.40;99.90
12957;DHT22;6543;48.836;10.092;2023-02-28T01:37:21;-2.70;99.90
12957;DHT22;6543;48.836;10.092;2023-02-28T01:40:05;-3.60;99.90
12957;DHT22;6543;48.836;10.092;2023-02-28T01:42:33;-2.70;99.90
12957;DHT22;6543;48.836;10.092;2023-02-28T01:45:07;-2.00;99.90
12957;DHT22;6543;48.836;10.092;2023-02-28T01:47:43;-2.00;99.90
12957;DHT22;6543;48.836;10.092;2023-02-28T01:50:16;-2.00;99.90
12957;DHT22;6543;48.836;10.092;2023-02-28T01:52:45;-2.00;99.90
12957;DHT22;6543;48.836;10.092;2023-02-28T01:55:15;-2.00;99.90
12957;DHT22;6543;48.836;10.092;2023-02-28T01:57:45;-2.00;99.90
12957;DHT22;6543;48.836;10.092;2023-02-28T02:00:15;-2.00;99.90
12957;DHT22;6543;48.836;10.092;2023-02-28T02:02:46;-2.00;99.90
12957;DHT22;6543;48.836;10.092;2023-02-28T02:05:16;-2.10;99.90
12957;DHT22;6543;48.836;10.092;2023-02-28T02:07:45;-2.00;99.90
12957;DHT22;6543;48.836;10.092;2023-02-28T02:10:14;-2.00;99.90
12957;DHT22;6543;48.836;10.092;2023-02-28T02:13:05;-2.10;99.90
12957;DHT22;6543;48.836;10.092;2023-02-28T02:15:39;-2.10;99.90
12957;DHT22;6543;48.836;10.092;2023-02-28T02:18:14;-2.10;99.90
12957;DHT22;6543;48.836;10.092;2023-02-28T02:24:29;-2.20;99.90
12957;DHT22;6543;48.836;10.092;2023-02-28T02:27:17;-2.30;99.90
12957;DHT22;6543;48.836;10.092;2023-02-28T02:33:23;-2.30;99.90
12957;DHT22;6543;48.836;10.092;2023-02-28T02:36:19;-0.80;99.90
12957;DHT22;6543;48.836;10.092;2023-02-28T02:39:19;-2.30;99.90
12957;DHT22;6543;48.836;10.092;2023-02-28T02:42:04;-2.80;99.90
12957;DHT22;6543;48.836;10.092;2023-02-28T02:45:16;-2.30;99.90
12957;DHT22;6543;48.836;10.092;2023-02-28T02:48:09;-2.30;99.90
12957;DHT22;6543;48.836;10.092;2023-02-28T02:51:06;-0.80;99.90
12957;DHT22;6543;48.836;10.092;2023-02-28T02:53:51;-2.30;99.90
12957;DHT22;6543;48.836;10.092;2023-02-28T02:56:39;-2.20;99.90
12957;DHT22;6543;48.836;10.092;2023-02-28T02:59:30;-1.20;99.90
12957;DHT22;6543;48.836;10.092;2023-02-28T03:02:23;-2.10;99.90
12957;DHT22;6543;48.836;10.092;2023-02-28T03:05:14;-2.60;99.90
12957;DHT22;6543;48.836;10.092;2023-02-28T03:07:52;-2.30;99.90
12957;DHT22;6543;48.836;10.092;2023-02-28T03:10:48;-1.70;99.90
12957;DHT22;6543;48.836;10.092;2023-02-28T03:13:45;-2.30;99.90
12957;DHT22;6543;48.836;10.092;2023-02-28T03:16:49;-0.50;99.90
12957;DHT22;6543;48.836;10.092;2023-02-28T03:19:37;-1.10;99.90
12957;DHT22;6543;48.836;10.092;2023-02-28T03:22:33;-1.80;99.90
12957;DHT22;6543;48.836;10.092;2023-02-28T03:25:11;-2.60;99.90
12957;DHT22;6543;48.836;10.092;2023-02-28T03:28:12;-2.20;99.90
12957;DHT22;6543;48.836;10.092;2023-02-28T03:30:59;-2.10;99.90
12957;DHT22;6543;48.836;10.092;2023-02-28T03:33:36;-2.30;99.90
12957;DHT22;6543;48.836;10.092;2023-02-28T03:36:17;-1.80;99.90
12957;DHT22;6543;48.836;10.092;2023-02-28T03:38:57;-0.60;99.90
12957;DHT22;6543;48.836;10.092;2023-02-28T03:41:46;-2.00;99.90
12957;DHT22;6543;48.836;10.092;2023-02-28T03:44:41;-0.50;99.90
12957;DHT22;6543;48.836;10.092;2023-02-28T03:47:21;-3.70;99.90
12957;DHT22;6543;48.836;10.092;2023-02-28T03:49:54;-2.20;99.90
12957;DHT22;6543;48.836;10.092;2023-02-28T03:52:27;-2.20;99.90
12957;DHT22;6543;48.836;10.092;2023-02-28T03:54:59;-2.20;99.90
12957;DHT22;6543;48.836;10.092;2023-02-28T03:57:34;-1.00;99.90
12957;DHT22;6543;48.836;10.092;2023-02-28T04:00:08;-2.20;99.90
12957;DHT22;6543;48.836;10.092;2023-02-28T04:02:36;-2.20;99.90
12957;DHT22;6543;48.836;10.092;2023-02-28T04:05:03;-2.20;99.90
12957;DHT22;6543;48.836;10.092;2023-02-28T04:07:31;-2.20;99.90
12957;DHT22;6543;48.836;10.092;2023-02-28T04:09:58;-2.10;99.90
12957;DHT22;6543;48.836;10.092;2023-02-28T04:12:26;-1.20;99.90
12957;DHT22;6543;48.836;10.092;2023-02-28T04:14:54;-2.10;99.90
12957;DHT22;6543;48.836;10.092;2023-02-28T04:17:23;-2.20;99.90
12957;DHT22;6543;48.836;10.092;2023-02-28T04:19:50;-2.20;99.90
12957;DHT22;6543;48.836;10.092;2023-02-28T04:22:19;-2.20;99.90
12957;DHT22;6543;48.836;10.092;2023-02-28T04:24:46;-2.30;99.90
12957;DHT22;6543;48.836;10.092;2023-02-28T04:27:36;-2.30;99.90
12957;DHT22;6543;48.836;10.092;2023-02-28T04:30:36;-2.80;99.90
12957;DHT22;6543;48.836;10.092;2023-02-28T04:33:20;-2.20;99.90
12957;DHT22;6543;48.836;10.092;2023-02-28T04:36:00;-3.40;99.90
12957;DHT22;6543;48.836;10.092;2023-02-28T04:38:48;-1.00;99.90
12957;DHT22;6543;48.836;10.092;2023-02-28T04:41:22;-2.20;99.90
12957;DHT22;6543;48.836;10.092;2023-02-28T04:44:02;-2.30;99.90
12957;DHT22;6543;48.836;10.092;2023-02-28T04:47:05;-2.60;99.90
12957;DHT22;6543;48.836;10.092;2023-02-28T04:52:50;-0.70;99.90
12957;DHT22;6543;48.836;10.092;2023-02-28T04:55:52;-0.90;99.90
12957;DHT22;6543;48.836;10.092;2023-02-28T04:58:49;-2.20;99.90
12957;DHT22;6543;48.836;10.092;2023-02-28T05:01:50;-2.20;99.90
12957;DHT22;6543;48.836;10.092;2023-02-28T05:08:06;-3.50;99.90
12957;DHT22;6543;48.836;10.092;2023-02-28T05:10:46;-2.20;99.90
12957;DHT22;6543;48.836;10.092;2023-02-28T05:13:43;-2.40;99.90
12957;DHT22;6543;48.836;10.092;2023-02-28T05:16:20;-3.70;99.90
12957;DHT22;6543;48.836;10.092;2023-02-28T05:19:23;-0.70;99.90
12957;DHT22;6543;48.836;10.092;2023-02-28T05:22:13;-1.20;99.90
12957;DHT22;6543;48.836;10.092;2023-02-28T05:25:08;-0.70;99.90
12957;DHT22;6543;48.836;10.092;2023-02-28T05:27:49;-2.30;99.90
12957;DHT22;6543;48.836;10.092;2023-02-28T05:30:28;-0.70;99.90
12957;DHT22;6543;48.836;10.092;2023-02-28T05:33:19;-2.30;99.90
12957;DHT22;6543;48.836;10.092;2023-02-28T05:36:27;-2.30;99.90
12957;DHT22;6543;48.836;10.092;2023-02-28T05:39:18;-2.30;99.90
12957;DHT22;6543;48.836;10.092;2023-02-28T05:42:09;-2.30;99.90
12957;DHT22;6543;48.836;10.092;2023-02-28T05:44:54;-1.00;99.90
12957;DHT22;6543;48.836;10.092;2023-02-28T05:47:53;-2.00;99.90
12957;DHT22;6543;48.836;10.092;2023-02-28T05:51:02;-2.30;99.90
12957;DHT22;6543;48.836;10.092;2023-02-28T05:53:50;-2.40;99.90
12957;DHT22;6543;48.836;10.092;2023-02-28T05:56:32;-2.20;99.90
12957;DHT22;6543;48.836;10.092;2023-02-28T06:02:39;-2.20;99.90
12957;DHT22;6543;48.836;10.092;2023-02-28T06:05:27;-2.30;99.90
12957;DHT22;6543;48.836;10.092;2023-02-28T06:08:19;-0.20;99.90
12957;DHT22;6543;48.836;10.092;2023-02-28T06:11:26;-2.20;99.90
12957;DHT22;6543;48.836;10.092;2023-02-28T06:14:12;-2.40;99.90
12957;DHT22;6543;48.836;10.092;2023-02-28T06:23:23;-2.10;99.90
12957;DHT22;6543;48.836;10.092;2023-02-28T06:26:08;-2.40;99.90
12957;DHT22;6543;48.836;10.092;2023-02-28T06:32:43;-2.20;99.90
12957;DHT22;6543;48.836;10.092;2023-02-28T06:35:42;-2.90;99.90
12957;DHT22;6543;48.836;10.092;2023-02-28T06:38:55;-2.20;99.90
12957;DHT22;6543;48.836;10.092;2023-02-28T06:41:52;-2.20;99.90
12957;DHT22;6543;48.836;10.092;2023-02-28T06:44:59;-3.50;99.90
12957;DHT22;6543;48.836;10.092;2023-02-28T06:47:58;-2.20;99.90
12957;DHT22;6543;48.836;10.092;2023-02-28T06:51:03;-2.20;99.90
12957;DHT22;6543;48.836;10.092;2023-02-28T06:54:10;-3.50;99.90
12957;DHT22;6543;48.836;10.092;2023-02-28T06:57:17;-3.40;99.90
12957;DHT22;6543;48.836;10.092;2023-02-28T07:00:15;-0.80;99.90
12957;DHT22;6543;48.836;10.092;2023-02-28T07:03:06;-2.10;99.90
12957;DHT22;6543;48.836;10.092;2023-02-28T07:05:53;-0.90;99.90
12957;DHT22;6543;48.836;10.092;2023-02-28T07:08:52;-2.00;99.90
12957;DHT22;6543;48.836;10.092;2023-02-28T07:12:07;-2.20;99.90
12957;DHT22;6543;48.836;10.092;2023-02-28T07:15:34;-2.10;99.90
12957;DHT22;6543;48.836;10.092;2023-02-28T07:18:11;-1.70;99.90
12957;DHT22;6543;48.836;10.092;2023-02-28T07:21:01;-2.00;99.90
12957;DHT22;6543;48.836;10.092;2023-02-28T07:23:57;-1.60;99.90
12957;DHT22;6543;48.836;10.092;2023-02-28T07:30:38;-3.00;99.90
12957;DHT22;6543;48.836;10.092;2023-02-28T07:47:03;-1.70;99.90
12957;DHT22;6543;48.836;10.092;2023-02-28T07:49:54;-0.30;99.90
12957;DHT22;6543;48.836;10.092;2023-02-28T07:55:57;-1.60;99.90
12957;DHT22;6543;48.836;10.092;2023-02-28T08:00:15;-2.00;99.90
12957;DHT22;6543;48.836;10.092;2023-02-28T08:02:48;-1.90;99.90
12957;DHT22;6543;48.836;10.092;2023-02-28T08:09:20;-2.90;99.90
12957;DHT22;6543;48.836;10.092;2023-02-28T08:12:28;-1.60;99.90
12957;DHT22;6543;48.836;10.092;2023-02-28T08:15:27;-0.50;99.90
12957;DHT22;6543;48.836;10.092;2023-02-28T08:27:59;-1.80;99.90
12957;DHT22;6543;48.836;10.092;2023-02-28T08:39:45;-0.90;99.90
12957;DHT22;6543;48.836;10.092;2023-02-28T08:47:10;0.10;99.90
12957;DHT22;6543;48.836;10.092;2023-02-28T08:53:09;-0.70;99.90
12957;DHT22;6543;48.836;10.092;2023-02-28T08:56:44;1.20;99.90
12957;DHT22;6543;48.836;10.092;2023-02-28T08:59:48;0.40;99.90
12957;DHT22;6543;48.836;10.092;2023-02-28T09:02:58;-0.10;99.90
12957;DHT22;6543;48.836;10.092;2023-02-28T09:08:59;0.30;99.90
12957;DHT22;6543;48.836;10.092;2023-02-28T09:11:36;1.30;99.90
12957;DHT22;6543;48.836;10.092;2023-02-28T09:14:34;0.00;99.90
12957;DHT22;6543;48.836;10.092;2023-02-28T09:24:34;0.40;99.90
12957;DHT22;6543;48.836;10.092;2023-02-28T09:27:27;0.30;99.90
12957;DHT22;6543;48.836;10.092;2023-02-28T09:30:17;0.30;99.90
12957;DHT22;6543;48.836;10.092;2023-02-28T09:33:05;0.40;99.90
12957;DHT22;6543;48.836;10.092;2023-02-28T09:35:58;1.00;99.90
12957;DHT22;6543;48.836;10.092;2023-02-28T09:38:32;0.30;99.90
12957;DHT22;6543;48.836;10.092;2023-02-28T09:41:14;0.20;99.90
12957;DHT22;6543;48.836;10.092;2023-02-28T09:44:18;0.40;99.90
12957;DHT22;6543;48.836;10.092;2023-02-28T09:47:11;1.90;99.90
12957;DHT22;6543;48.836;10.092;2023-02-28T09:49:51;0.50;99.90
12957;DHT22;6543;48.836;10.092;2023-02-28T09:52:26;1.80;99.90
12957;DHT22;6543;48.836;10.092;2023-02-28T09:55:01;0.70;99.90
12957;DHT22;6543;48.836;10.092;2023-02-28T09:57:41;1.00;99.90
12957;DHT22;6543;48.836;10.092;2023-02-28T10:00:23;0.80;99.90
12957;DHT22;6543;48.836;10.092;2023-02-28T10:03:31;1.10;99.90
12957;DHT22;6543;48.836;10.092;2023-02-28T10:06:17;1.20;99.90
12957;DHT22;6543;48.836;10.092;2023-02-28T10:09:11;0.50;99.90
12957;DHT22;6543;48.836;10.092;2023-02-28T10:11:41;0.90;99.90
12957;DHT22;6543;48.836;10.092;2023-02-28T10:14:24;0.90;99.90
12957;DHT22;6543;48.836;10.092;2023-02-28T10:17:11;1.70;99.90
12957;DHT22;6543;48.836;10.092;2023-02-28T10:19:49;2.30;99.90
12957;DHT22;6543;48.836;10.092;2023-02-28T10:22:31;2.70;99.90
12957;DHT22;6543;48.836;10.092;2023-02-28T10:25:19;0.90;99.90
12957;DHT22;6543;48.836;10.092;2023-02-28T10:27:46;-0.40;99.90
12957;DHT22;6543;48.836;10.092;2023-02-28T10:30:36;2.60;99.90
12957;DHT22;6543;48.836;10.092;2023-02-28T10:33:26;1.50;99.90
12957;DHT22;6543;48.836;10.092;2023-02-28T10:36:30;1.60;99.90
12957;DHT22;6543;48.836;10.092;2023-02-28T10:41:57;2.20;99.90
12957;DHT22;6543;48.836;10.092;2023-02-28T10:44:48;1.90;99.90
12957;DHT22;6543;48.836;10.092;2023-02-28T10:47:55;2.10;99.90
12957;DHT22;6543;48.836;10.092;2023-02-28T10:50:44;3.80;99.90
12957;DHT22;6543;48.836;10.092;2023-02-28T10:53:49;0.80;99.90
12957;DHT22;6543;48.836;10.092;2023-02-28T10:56:33;3.50;99.90
12957;DHT22;6543;48.836;10.092;2023-02-28T10:59:26;2.10;99.90
12957;DHT22;6543;48.836;10.092;2023-02-28T11:02:33;1.80;99.90
12957;DHT22;6543;48.836;10.092;2023-02-28T11:18:14;3.40;99.90
12957;DHT22;6543;48.836;10.092;2023-02-28T11:25:01;2.60;99.90
12957;DHT22;6543;48.836;10.092;2023-02-28T11:28:53;2.80;99.90
12957;DHT22;6543;48.836;10.092;2023-02-28T11:31:40;4.60;99.90
12957;DHT22;6543;48.836;10.092;2023-02-28T11:37:59;1.70;99.90
12957;DHT22;6543;48.836;10.092;2023-02-28T11:44:35;4.20;99.90
12957;DHT22;6543;48.836;10.092;2023-02-28T11:51:05;3.10;99.90
12957;DHT22;6543;48.836;10.092;2023-02-28T11:57:56;3.10;99.90
12957;DHT22;6543;48.836;10.092;2023-02-28T12:01:07;3.30;99.90
12957;DHT22;6543;48.836;10.092;2023-02-28T12:10:05;3.30;99.90
12957;DHT22;6543;48.836;10.092;2023-02-28T12:16:45;3.20;99.90
12957;DHT22;6543;48.836;10.092;2023-02-28T12:19:34;4.50;99.90
12957;DHT22;6543;48.836;10.092;2023-02-28T12:22:28;3.70;99.90
12957;DHT22;6543;48.836;10.092;2023-02-28T12:25:37;3.30;99.90
12957;DHT22;6543;48.836;10.092;2023-02-28T12:28:09;3.40;99.90
12957;DHT22;6543;48.836;10.092;2023-02-28T12:30:41;5.40;99.90
12957;DHT22;6543;48.836;10.092;2023-02-28T12:33:12;3.40;99.90
12957;DHT22;6543;48.836;10.092;2023-02-28T12:35:46;3.40;99.90
12957;DHT22;6543;48.836;10.092;2023-02-28T12:38:17;3.50;99.90
12957;DHT22;6543;48.836;10.092;2023-02-28T12:40:49;4.30;99.90
12957;DHT22;6543;48.836;10.092;2023-02-28T12:43:19;3.70;99.90
12957;DHT22;6543;48.836;10.092;2023-02-28T12:45:50;5.10;99.90
12957;DHT22;6543;48.836;10.092;2023-02-28T12:48:24;3.00;99.90
12957;DHT22;6543;48.836;10.092;2023-02-28T12:50:52;4.30;99.90
12957;DHT22;6543;48.836;10.092;2023-02-28T12:53:25;5.60;99.90
12957;DHT22;6543;48.836;10.092;2023-02-28T12:56:03;4.70;99.90
12957;DHT22;6543;48.836;10.092;2023-02-28T12:58:37;3.90;99.90
12957;DHT22;6543;48.836;10.092;2023-02-28T13:01:26;4.00;99.90
12957;DHT22;6543;48.836;10.092;2023-02-28T13:04:19;3.70;99.90
12957;DHT22;6543;48.836;10.092;2023-02-28T13:07:04;3.90;99.90
12957;DHT22;6543;48.836;10.092;2023-02-28T13:09:33;5.70;99.90
12957;DHT22;6543;48.836;10.092;2023-02-28T13:12:00;1.70;99.90
12957;DHT22;6543;48.836;10.092;2023-02-28T13:14:29;6.10;99.90
12957;DHT22;6543;48.836;10.092;2023-02-28T13:17:03;3.90;99.90
12957;DHT22;6543;48.836;10.092;2023-02-28T13:19:40;3.90;99.90
12957;DHT22;6543;48.836;10.092;2023-02-28T13:22:17;3.70;99.90
12957;DHT22;6543;48.836;10.092;2023-02-28T13:24:47;5.00;99.90
12957;DHT22;6543;48.836;10.092;2023-02-28T13:27:24;3.90;99.90
12957;DHT22;6543;48.836;10.092;2023-02-28T13:29:58;4.10;99.90
12957;DHT22;6543;48.836;10.092;2023-02-28T13:32:34;5.30;99.90
12957;DHT22;6543;48.836;10.092;2023-02-28T13:41:46;3.90;99.90
12957;DHT22;6543;48.836;10.092;2023-02-28T13:44:18;3.90;99.90
12957;DHT22;6543;48.836;10.092;2023-02-28T13:47:20;5.10;99.90
12957;DHT22;6543;48.836;10.092;2023-02-28T13:49:49;3.80;99.90
12957;DHT22;6543;48.836;10.092;2023-02-28T13:52:20;5.60;99.90
12957;DHT22;6543;48.836;10.092;2023-02-28T13:55:19;3.70;99.90
12957;DHT22;6543;48.836;10.092;2023-02-28T13:58:03;3.70;99.90
12957;DHT22;6543;48.836;10.092;2023-02-28T14:00:54;3.30;99.90
12957;DHT22;6543;48.836;10.092;2023-02-28T14:06:23;3.80;99.90
12957;DHT22;6543;48.836;10.092;2023-02-28T14:08:58;5.10;99.90
12957;DHT22;6543;48.836;10.092;2023-02-28T14:11:29;5.70;99.90
12957;DHT22;6543;48.836;10.092;2023-02-28T14:13:58;3.70;99.90
12957;DHT22;6543;48.836;10.092;2023-02-28T14:16:27;3.80;99.90
12957;DHT22;6543;48.836;10.092;2023-02-28T14:18:58;3.70;99.90
12957;DHT22;6543;48.836;10.092;2023-02-28T14:21:29;3.80;99.90
12957;DHT22;6543;48.836;10.092;2023-02-28T14:30:07;4.00;99.90
12957;DHT22;6543;48.836;10.092;2023-02-28T14:32:46;3.90;99.90
12957;DHT22;6543;48.836;10.092;2023-02-28T14:35:22;3.90;99.90
12957;DHT22;6543;48.836;10.092;2023-02-28T14:37:54;4.00;99.90
12957;DHT22;6543;48.836;10.092;2023-02-28T14:40:27;4.00;99.90
12957;DHT22;6543;48.836;10.092;2023-02-28T14:42:56;4.00;99.90
12957;DHT22;6543;48.836;10.092;2023-02-28T14:45:28;4.10;99.90
12957;DHT22;6543;48.836;10.092;2023-02-28T14:47:57;4.00;99.90
12957;DHT22;6543;48.836;10.092;2023-02-28T14:50:34;4.80;99.90
12957;DHT22;6543;48.836;10.092;2023-02-28T14:53:02;3.90;99.90
12957;DHT22;6543;48.836;10.092;2023-02-28T14:55:32;4.00;99.90
12957;DHT22;6543;48.836;10.092;2023-02-28T14:58:01;2.70;99.90
12957;DHT22;6543;48.836;10.092;2023-02-28T15:00:32;3.80;99.90
12957;DHT22;6543;48.836;10.092;2023-02-28T15:03:17;3.80;99.90
12957;DHT22;6543;48.836;10.092;2023-02-28T15:05:51;3.80;99.90
12957;DHT22;6543;48.836;10.092;2023-02-28T15:08:19;3.80;99.90
12957;DHT22;6543;48.836;10.092;2023-02-28T15:10:52;3.80;99.90
12957;DHT22;6543;48.836;10.092;2023-02-28T15:13:20;3.70;99.90
12957;DHT22;6543;48.836;10.092;2023-02-28T15:15:52;5.00;99.90
12957;DHT22;6543;48.836;10.092;2023-02-28T15:18:31;4.70;99.90
12957;DHT22;6543;48.836;10.092;2023-02-28T15:21:03;4.00;99.90
12957;DHT22;6543;48.836;10.092;2023-02-28T15:23:31;4.30;99.90
12957;DHT22;6543;48.836;10.092;2023-02-28T15:26:00;4.40;99.90
12957;DHT22;6543;48.836;10.092;2023-02-28T15:28:28;4.10;99.90
12957;DHT22;6543;48.836;10.092;2023-02-28T15:30:59;3.60;99.90
12957;DHT22;6543;48.836;10.092;2023-02-28T15:33:27;5.30;99.90
12957;DHT22;6543;48.836;10.092;2023-02-28T15:36:12;4.10;99.90
12957;DHT22;6543;48.836;10.092;2023-02-28T15:38:39;4.10;99.90
12957;DHT22;6543;48.836;10.092;2023-02-28T15:41:24;4.00;99.90
12957;DHT22;6543;48.836;10.092;2023-02-28T15:44:14;4.00;99.90
12957;DHT22;6543;48.836;10.092;2023-02-28T15:46:55;4.00;99.90
12957;DHT22;6543;48.836;10.092;2023-02-28T15:49:23;3.80;99.90
12957;DHT22;6543;48.836;10.092;2023-02-28T15:51:52;3.90;99.90
12957;DHT22;6543;48.836;10.092;2023-02-28T15:54:23;3.80;99.90
12957;DHT22;6543;48.836;10.092;2023-02-28T15:56:53;3.60;99.90
12957;DHT22;6543;48.836;10.092;2023-02-28T15:59:23;5.00;99.90
12957;DHT22;6543;48.836;10.092;2023-02-28T16:02:14;3.40;99.90
12957;DHT22;6543;48.836;10.092;2023-02-28T16:04:57;3.30;99.90
12957;DHT22;6543;48.836;10.092;2023-02-28T16:07:27;3.30;99.90
12957;DHT22;6543;48.836;10.092;2023-02-28T16:09:54;4.90;99.90
12957;DHT22;6543;48.836;10.092;2023-02-28T16:12:26;3.70;99.90
12957;DHT22;6543;48.836;10.092;2023-02-28T16:14:54;3.10;99.90
12957;DHT22;6543;48.836;10.092;2023-02-28T16:17:25;3.10;99.90
12957;DHT22;6543;48.836;10.092;2023-02-28T16:19:53;4.70;99.90
12957;DHT22;6543;48.836;10.092;2023-02-28T16:22:21;4.80;99.90
12957;DHT22;6543;48.836;10.092;2023-02-28T16:24:48;3.00;99.90
12957;DHT22;6543;48.836;10.092;2023-02-28T16:27:18;3.60;99.90
12957;DHT22;6543;48.836;10.092;2023-02-28T16:29:47;4.20;99.90
12957;DHT22;6543;48.836;10.092;2023-02-28T16:32:15;2.90;99.90
12957;DHT22;6543;48.836;10.092;2023-02-28T16:34:44;2.80;99.90
12957;DHT22;6543;48.836;10.092;2023-02-28T16:37:15;2.80;99.90
12957;DHT22;6543;48.836;10.092;2023-02-28T16:39:43;2.70;99.90
12957;DHT22;6543;48.836;10.092;2023-02-28T16:42:15;4.40;99.90
12957;DHT22;6543;48.836;10.092;2023-02-28T16:44:43;2.70;99.90
12957;DHT22;6543;48.836;10.092;2023-02-28T16:47:10;2.90;99.90
12957;DHT22;6543;48.836;10.092;2023-02-28T16:49:38;2.60;99.90
12957;DHT22;6543;48.836;10.092;2023-02-28T16:52:08;4.40;99.90
12957;DHT22;6543;48.836;10.092;2023-02-28T16:54:34;2.60;99.90
12957;DHT22;6543;48.836;10.092;2023-02-28T16:57:02;2.50;99.90
12957;DHT22;6543;48.836;10.092;2023-02-28T16:59:29;2.00;99.90
12957;DHT22;6543;48.836;10.092;2023-02-28T17:01:56;3.50;99.90
12957;DHT22;6543;48.836;10.092;2023-02-28T17:04:24;2.80;99.90
12957;DHT22;6543;48.836;10.092;2023-02-28T17:06:57;1.40;99.90
12957;DHT22;6543;48.836;10.092;2023-02-28T17:09:27;3.90;99.90
12957;DHT22;6543;48.836;10.092;2023-02-28T17:11:54;3.40;99.90
12957;DHT22;6543;48.836;10.092;2023-02-28T17:14:22;3.80;99.90
12957;DHT22;6543;48.836;10.092;2023-02-28T17:16:49;2.10;99.90
12957;DHT22;6543;48.836;10.092;2023-02-28T17:19:16;3.30;99.90
12957;DHT22;6543;48.836;10.092;2023-02-28T17:21:44;3.10;99.90
12957;DHT22;6543;48.836;10.092;2023-02-28T17:24:12;2.10;99.90
12957;DHT22;6543;48.836;10.092;2023-02-28T17:26:41;3.40;99.90
12957;DHT22;6543;48.836;10.092;2023-02-28T17:29:14;4.30;99.90
12957;DHT22;6543;48.836;10.092;2023-02-28T17:31:41;3.10;99.90
12957;DHT22;6543;48.836;10.092;2023-02-28T17:34:08;1.90;99.90
12957;DHT22;6543;48.836;10.092;2023-02-28T17:36:35;3.90;99.90
12957;DHT22;6543;48.836;10.092;2023-02-28T17:39:04;3.60;99.90
12957;DHT22;6543;48.836;10.092;2023-02-28T17:41:37;1.80;99.90
12957;DHT22;6543;48.836;10.092;2023-02-28T17:44:05;1.20;99.90
12957;DHT22;6543;48.836;10.092;2023-02-28T17:46:32;1.80;99.90
12957;DHT22;6543;48.836;10.092;2023-02-28T17:49:04;1.70;99.90
12957;DHT22;6543;48.836;10.092;2023-02-28T17:51:31;4.10;99.90
12957;DHT22;6543;48.836;10.092;2023-02-28T17:54:00;2.00;99.90
12957;DHT22;6543;48.836;10.092;2023-02-28T17:56:27;2.70;99.90
12957;DHT22;6543;48.836;10.092;2023-02-28T17:58:55;1.60;99.90
12957;DHT22;6543;48.836;10.092;2023-02-28T18:01:32;3.60;99.90
12957;DHT22;6543;48.836;10.092;2023-02-28T18:04:07;0.80;99.90
12957;DHT22;6543;48.836;10.092;2023-02-28T18:06:37;2.90;99.90
12957;DHT22;6543;48.836;10.092;2023-02-28T18:09:13;1.50;99.90
12957;DHT22;6543;48.836;10.092;2023-02-28T18:11:41;0.50;99.90
12957;DHT22;6543;48.836;10.092;2023-02-28T18:14:10;2.10;99.90
12957;DHT22;6543;48.836;10.092;2023-02-28T18:16:41;-0.30;99.90
12957;DHT22;6543;48.836;10.092;2023-02-28T18:19:13;-0.20;99.90
12957;DHT22;6543;48.836;10.092;2023-02-28T18:21:42;1.60;99.90
12957;DHT22;6543;48.836;10.092;2023-02-28T18:24:10;1.10;99.90
12957;DHT22;6543;48.836;10.092;2023-02-28T18:26:37;3.80;99.90
12957;DHT22;6543;48.836;10.092;2023-02-28T18:29:04;1.70;99.90
12957;DHT22;6543;48.836;10.092;2023-02-28T18:31:32;1.50;99.90
12957;DHT22;6543;48.836;10.092;2023-02-28T18:34:00;3.90;99.90
12957;DHT22;6543;48.836;10.092;2023-02-28T18:36:27;1.50;99.90
12957;DHT22;6543;48.836;10.092;2023-02-28T18:38:54;0.40;99.90
12957;DHT22;6543;48.836;10.092;2023-02-28T18:41:21;1.40;99.90
12957;DHT22;6543;48.836;10.092;2023-02-28T18:43:48;1.60;99.90
12957;DHT22;6543;48.836;10.092;2023-02-28T18:46:17;1.60;99.90
12957;DHT22;6543;48.836;10.092;2023-02-28T18:48:44;1.40;99.90
12957;DHT22;6543;48.836;10.092;2023-02-28T18:51:15;2.00;99.90
12957;DHT22;6543;48.836;10.092;2023-02-28T18:53:42;3.10;99.90
12957;DHT22;6543;48.836;10.092;2023-02-28T18:56:11;2.30;99.90
12957;DHT22;6543;48.836;10.092;2023-02-28T18:58:40;1.30;99.90
12957;DHT22;6543;48.836;10.092;2023-02-28T19:01:14;1.40;99.90
12957;DHT22;6543;48.836;10.092;2023-02-28T19:03:41;1.30;99.90
12957;DHT22;6543;48.836;10.092;2023-02-28T19:06:08;1.30;99.90
12957;DHT22;6543;48.836;10.092;2023-02-28T19:08:37;1.60;99.90
12957;DHT22;6543;48.836;10.092;2023-02-28T19:11:08;2.60;99.90
12957;DHT22;6543;48.836;10.092;2023-02-28T19:13:35;3.40;99.90
12957;DHT22;6543;48.836;10.092;2023-02-28T19:16:04;2.30;99.90
12957;DHT22;6543;48.836;10.092;2023-02-28T19:18:32;1.20;99.90
12957;DHT22;6543;48.836;10.092;2023-02-28T19:20:59;1.20;99.90
12957;DHT22;6543;48.836;10.092;2023-02-28T19:23:26;1.20;99.90
12957;DHT22;6543;48.836;10.092;2023-02-28T19:25:55;1.10;99.90
12957;DHT22;6543;48.836;10.092;2023-02-28T19:28:22;1.90;99.90
12957;DHT22;6543;48.836;10.092;2023-02-28T19:30:49;1.10;99.90
12957;DHT22;6543;48.836;10.092;2023-02-28T19:33:18;1.10;99.90
12957;DHT22;6543;48.836;10.092;2023-02-28T19:35:45;1.10;99.90
12957;DHT22;6543;48.836;10.092;2023-02-28T19:38:13;1.00;99.90
12957;DHT22;6543;48.836;10.092;2023-02-28T19:40:40;2.50;99.90